LAS weather

McCarran International Airport
Las Vegas, Nevada, United States

Public forecast

Using degrees Fahrenheit for public forecast. Weather courtesy of forecast.io.

Current aviation weather report (METAR) for McCarran International Airport

Retrieved 2019/10/13 18:56 UTC (45 minutes ago):

KLAS 131856Z VRB04KT 10SM FEW250 22/M14 A2994 RMK AO2 SLP125 T02171144

Aviation forecast (TAF) for McCarran International Airport

Retrieved 2019/10/13 18:22 UTC (1 hour ago):

TAF KLAS 131720Z 1318/1424 VRB05KT P6SM FEW250 FM132200 14008KT P6SM FEW250 FM140300 22007KT P6SM SCT250 FM141400 VRB05KT P6SM SCT250 FM142000 10006KT P6SM SKC